Time;durP1;ratioP1;P1;durP2;ratioP2;P2;SDS_P1;SDS_P2;PMS_P1;PMS_P2;Temp;Humidity;BMP_temperature;BMP_pressure;BME280_temperature;BME280_humidity;BME280_pressure;Samples;Min_cycle;Max_cycle;Signal;HPM_P1;HPM_P2
2021/05/04 00:01:34;;;;;;;3.40;2.67;;;6.40;99.90;;;8.07;100.00;100076.59;5001155;28;43615;-59
2021/05/04 00:04:45;;;;;;;4.30;2.83;;;6.30;99.90;;;7.98;100.00;100068.63;5003969;28;48433;-58
2021/05/04 00:07:56;;;;;;;3.90;2.77;;;6.30;99.90;;;8.04;100.00;100068.88;4986203;28;38747;-60
2021/05/04 00:11:09;;;;;;;3.47;3.00;;;6.30;99.90;;;8.09;100.00;100065.78;4994139;28;45340;-58
2021/05/04 00:14:20;;;;;;;3.63;2.90;;;6.30;99.90;;;7.82;100.00;100066.59;4986892;28;43751;-58
2021/05/04 00:17:31;;;;;;;3.07;2.77;;;6.20;99.90;;;7.97;100.00;100057.16;4985386;28;40768;-59
2021/05/04 00:21:00;;;;;;;4.77;2.80;;;6.20;99.90;;;7.90;100.00;100050.75;4984154;28;48352;-60
2021/05/04 00:24:11;;;;;;;3.10;2.33;;;6.20;99.90;;;8.04;100.00;100052.88;4984827;28;43927;-60
2021/05/04 00:27:23;;;;;;;3.20;2.90;;;6.20;99.90;;;7.91;100.00;100037.25;4984766;28;46864;-60
2021/05/04 00:30:35;;;;;;;3.80;2.90;;;6.20;99.90;;;7.99;100.00;100025.88;4986429;28;41700;-60
2021/05/04 00:33:46;;;;;;;3.97;3.13;;;6.20;99.90;;;8.07;100.00;100028.63;4983834;28;45931;-59
2021/05/04 00:36:57;;;;;;;3.77;2.83;;;6.20;99.90;;;8.07;100.00;100027.78;4985294;28;42410;-59
2021/05/04 00:40:09;;;;;;;3.10;2.80;;;6.30;99.90;;;8.06;100.00;100026.09;4987864;28;44922;-60
2021/05/04 00:43:33;;;;;;;3.73;2.80;;;6.30;99.90;;;8.12;100.00;100013.03;4992045;28;43181;-59
2021/05/04 00:46:45;;;;;;;5.17;3.10;;;6.30;99.90;;;8.14;100.00;100005.75;4986123;28;39163;-60
2021/05/04 00:50:20;;;;;;;3.27;2.87;;;6.40;99.90;;;8.21;100.00;99996.13;4989470;28;40898;-60
2021/05/04 00:53:38;;;;;;;4.43;3.20;;;6.40;99.90;;;8.21;100.00;99993.47;4993050;28;40939;-60
2021/05/04 00:56:50;;;;;;;3.27;2.97;;;6.40;99.90;;;8.11;100.00;99997.19;4989255;28;45303;-60
2021/05/04 01:00:05;;;;;;;3.90;3.10;;;6.40;99.90;;;8.05;100.00;99987.94;4971586;28;46585;-59
2021/05/04 01:03:16;;;;;;;5.00;3.00;;;6.40;99.90;;;7.97;100.00;99992.34;4974253;28;43816;-59
2021/05/04 01:06:27;;;;;;;3.90;3.23;;;6.40;99.90;;;7.97;100.00;99984.38;4990203;28;43692;-60
2021/05/04 01:09:39;;;;;;;3.57;3.10;;;6.40;99.90;;;8.03;100.00;99986.44;4993097;28;37466;-60
2021/05/04 01:12:51;;;;;;;3.97;3.10;;;6.40;99.90;;;7.89;100.00;99977.97;4997342;28;43119;-58
2021/05/04 01:16:03;;;;;;;4.47;3.47;;;6.40;99.90;;;7.92;100.00;99976.81;5007277;28;43023;-59
2021/05/04 01:19:26;;;;;;;4.10;3.20;;;6.30;99.90;;;7.88;100.00;99965.63;5007225;28;46098;-59
2021/05/04 01:22:38;;;;;;;4.83;3.53;;;6.30;99.90;;;8.04;100.00;99953.47;5002198;28;48251;-60
2021/05/04 01:25:57;;;;;;;4.87;3.70;;;6.30;99.90;;;7.95;100.00;99955.19;5007833;28;45093;-59
2021/05/04 01:29:08;;;;;;;4.40;3.43;;;6.30;99.90;;;7.87;100.00;99952.47;5002713;28;41271;-60
2021/05/04 01:32:26;;;;;;;5.13;3.37;;;6.30;99.90;;;7.87;100.00;99949.78;5008802;28;39190;-60
2021/05/04 01:39:08;;;;;;;5.37;3.90;;;6.30;99.90;;;7.74;100.00;99930.66;4998715;28;47988;-58
2021/05/04 01:42:19;;;;;;;6.07;3.60;;;6.20;99.90;;;7.86;100.00;99930.31;5006288;28;48567;-59
2021/05/04 01:45:30;;;;;;;3.53;3.23;;;6.20;99.90;;;7.90;100.00;99928.19;5007651;28;37405;-59
2021/05/04 01:48:41;;;;;;;4.87;3.57;;;6.20;99.90;;;7.88;100.00;99923.00;5008452;28;56641;-59
2021/05/04 01:51:55;;;;;;;4.80;3.60;;;6.20;99.90;;;8.00;100.00;99914.81;5007796;28;40877;-60
2021/05/04 01:55:07;;;;;;;5.40;3.27;;;6.20;99.90;;;7.98;100.00;99901.63;5007891;28;41112;-59
2021/05/04 01:58:36;;;;;;;6.33;3.63;;;6.20;99.90;;;7.99;100.00;99892.66;5008356;28;44415;-60
2021/05/04 02:01:59;;;;;;;3.30;3.00;;;6.20;99.90;;;7.93;100.00;99888.75;4982287;28;40578;-59
2021/05/04 02:05:10;;;;;;;5.13;3.67;;;6.20;99.70;;;7.90;100.00;99883.75;5004117;28;45877;-59
2021/05/04 02:08:22;;;;;;;4.63;3.77;;;6.20;99.70;;;7.84;100.00;99870.19;4987871;28;42082;-59
2021/05/04 02:11:34;;;;;;;3.63;3.23;;;6.30;99.60;;;7.97;100.00;99865.31;5009609;28;42005;-61
2021/05/04 02:14:46;;;;;;;4.40;3.97;;;6.20;99.80;;;7.96;100.00;99857.47;5008031;28;37677;-58
2021/05/04 02:17:57;;;;;;;3.97;3.33;;;6.30;99.40;;;7.92;100.00;99844.44;4988905;28;49352;-60
2021/05/04 02:21:20;;;;;;;4.77;3.40;;;6.30;99.20;;;7.92;100.00;99836.47;5007454;28;51157;-58
2021/05/04 02:28:03;;;;;;;6.20;3.73;;;6.40;98.40;;;8.18;100.00;99831.19;5010093;28;36964;-60
2021/05/04 02:31:25;;;;;;;4.03;3.43;;;6.40;98.10;;;8.26;100.00;99825.94;5006044;28;41741;-59
2021/05/04 02:34:37;;;;;;;4.53;3.73;;;6.50;97.80;;;8.29;100.00;99827.44;5008761;28;37650;-58
2021/05/04 02:37:48;;;;;;;3.97;3.67;;;6.60;97.60;;;8.39;100.00;99822.06;5011486;28;42011;-57
2021/05/04 02:40:59;;;;;;;6.17;3.80;;;6.70;97.10;;;8.30;100.00;99811.31;5008519;28;39599;-57
2021/05/04 02:44:11;;;;;;;3.90;3.50;;;6.70;97.10;;;8.38;100.00;99813.25;5010095;28;42019;-59
2021/05/04 02:47:22;;;;;;;5.63;3.50;;;6.70;96.60;;;8.32;100.00;99810.34;5008512;28;43149;-59
2021/05/04 02:50:34;;;;;;;3.57;3.27;;;6.80;96.60;;;8.33;100.00;99796.03;5007564;28;46718;-59
2021/05/04 02:53:45;;;;;;;4.13;3.57;;;6.80;96.40;;;8.37;100.00;99789.41;5007129;28;54608;-59
2021/05/04 02:56:56;;;;;;;4.17;3.77;;;6.80;96.10;;;8.43;100.00;99780.75;4992337;28;34355;-58
2021/05/04 03:00:09;;;;;;;4.53;3.97;;;6.80;95.70;;;8.46;100.00;99773.28;5008154;28;39374;-58
2021/05/04 03:03:26;;;;;;;3.47;3.17;;;6.90;95.50;;;8.46;100.00;99769.78;5008757;28;43355;-59
2021/05/04 03:06:37;;;;;;;4.17;3.77;;;6.80;95.40;;;8.47;100.00;99758.97;5004368;28;44678;-60
2021/05/04 03:28:12;;;;;;;4.20;3.80;;;6.80;95.40;;;8.50;100.00;99723.16;4968377;28;37272;-57
2021/05/04 03:39:58;;;;;;;7.63;6.40;;;6.80;95.10;;;8.63;100.00;99696.91;4901147;28;38104;-58
2021/05/04 03:43:40;;;;;;;5.57;5.00;;;6.80;95.10;;;8.71;100.00;99682.75;4919497;28;39537;-59
2021/05/04 04:01:58;;;;;;;5.77;5.10;;;7.10;94.20;;;9.05;100.00;99640.00;4905419;28;36291;-59
2021/05/04 04:09:13;;;;;;;6.27;5.00;;;7.20;94.00;;;9.16;100.00;99623.66;5001105;28;38636;-58
2021/05/04 04:12:53;;;;;;;6.00;4.67;;;7.20;93.60;;;9.25;100.00;99615.50;5006646;28;37266;-59
2021/05/04 04:16:16;;;;;;;4.50;4.10;;;7.30;93.40;;;9.30;100.00;99613.16;5002677;28;42278;-59
2021/05/04 04:27:17;;;;;;;5.40;4.90;;;7.60;92.80;;;9.59;100.00;99577.09;4866205;29;50058;-58
2021/05/04 04:38:05;;;;;;;4.93;4.17;;;7.90;92.00;;;9.77;100.00;99564.38;4926861;28;47175;-60
2021/05/04 04:41:35;;;;;;;5.63;4.70;;;8.00;91.70;;;9.82;100.00;99562.03;4917076;28;42878;-59
2021/05/04 04:44:57;;;;;;;6.50;4.83;;;8.10;91.70;;;10.00;100.00;99562.66;4924129;28;45319;-60
2021/05/04 04:59:45;;;;;;;5.70;5.10;;;8.50;91.00;;;10.37;100.00;99531.78;4983619;28;44515;-59
2021/05/04 05:10:32;;;;;;;7.73;5.13;;;8.90;90.10;;;10.83;100.00;99502.41;5006149;28;42316;-57
2021/05/04 05:13:45;;;;;;;5.37;4.87;;;9.00;90.00;;;10.91;100.00;99505.84;5006537;28;39729;-60
2021/05/04 05:16:57;;;;;;;5.57;5.03;;;9.10;89.60;;;10.99;100.00;99504.97;5000741;28;42601;-58
2021/05/04 05:20:08;;;;;;;5.13;4.63;;;9.20;89.70;;;11.04;100.00;99498.03;4999505;28;43782;-59
2021/05/04 05:23:19;;;;;;;6.57;4.90;;;9.30;88.60;;;11.20;100.00;99494.41;4996496;28;38110;-59
2021/05/04 05:26:32;;;;;;;4.93;4.43;;;9.50;88.00;;;11.33;100.00;99489.25;4983282;28;39956;-59
2021/05/04 05:29:43;;;;;;;5.73;5.10;;;9.60;87.90;;;11.52;100.00;99490.56;4999249;28;42634;-58
2021/05/04 05:33:08;;;;;;;6.00;5.40;;;9.70;87.50;;;11.58;100.00;99483.66;5002254;28;45534;-59
2021/05/04 05:36:19;;;;;;;5.13;4.63;;;9.80;86.60;;;11.74;100.00;99476.28;5009385;28;38765;-57
2021/05/04 05:39:30;;;;;;;8.10;5.57;;;10.00;84.70;;;11.81;100.00;99469.16;4997936;28;38784;-59
2021/05/04 05:42:41;;;;;;;7.10;5.03;;;10.10;84.30;;;12.03;100.00;99459.34;5000864;28;35003;-59
2021/05/04 05:45:52;;;;;;;6.13;4.83;;;10.30;83.90;;;12.20;100.00;99451.91;5009807;28;44452;-58
2021/05/04 05:49:05;;;;;;;5.47;4.73;;;10.40;82.20;;;12.47;100.00;99439.63;5005001;28;41131;-59
2021/05/04 05:52:16;;;;;;;4.73;4.27;;;10.60;82.10;;;12.58;100.00;99437.28;5002314;28;40421;-59
2021/05/04 05:55:27;;;;;;;5.57;5.07;;;10.80;81.40;;;12.63;100.00;99435.84;5002336;28;51917;-59
2021/05/04 05:58:39;;;;;;;5.27;4.77;;;11.00;79.40;;;12.65;100.00;99431.13;4992232;28;46321;-58
2021/05/04 06:05:19;;;;;;;7.47;4.90;;;11.20;77.20;;;13.00;100.00;99415.94;4994320;28;45571;-60
2021/05/04 06:08:31;;;;;;;4.90;4.43;;;11.30;74.80;;;13.12;100.00;99409.81;4977149;28;43329;-59
2021/05/04 06:11:42;;;;;;;5.03;4.53;;;11.50;75.60;;;13.00;100.00;99397.97;5001334;28;41504;-59
2021/05/04 06:14:53;;;;;;;5.37;4.87;;;11.60;72.90;;;13.21;100.00;99395.28;5011766;28;33631;-58
2021/05/04 06:18:04;;;;;;;6.57;4.83;;;11.70;72.60;;;13.29;100.00;99376.31;5015968;28;28726;-60
2021/05/04 06:21:39;;;;;;;5.73;4.77;;;11.80;71.00;;;13.36;100.00;99383.56;5010343;28;39490;-59
2021/05/04 06:24:50;;;;;;;4.93;4.13;;;11.90;70.80;;;13.28;100.00;99382.69;5006675;28;49711;-57
2021/05/04 06:28:04;;;;;;;5.03;4.53;;;11.90;70.30;;;13.32;100.00;99369.72;5005943;28;36776;-58
2021/05/04 06:31:16;;;;;;;6.07;4.80;;;12.00;69.00;;;13.43;100.00;99357.56;5014719;28;37009;-60
2021/05/04 06:34:27;;;;;;;5.17;4.67;;;12.10;69.20;;;13.45;100.00;99347.47;5014695;28;38766;-57
2021/05/04 06:45:14;;;;;;;5.00;4.50;;;12.50;68.10;;;13.78;100.00;99318.00;5021090;28;20663;-60
2021/05/04 06:48:31;;;;;;;5.23;3.97;;;12.60;68.00;;;13.50;100.00;99310.03;5013933;28;22777;-59
2021/05/04 06:51:50;;;;;;;4.97;4.40;;;12.70;67.00;;;13.96;100.00;99310.22;5016771;28;29615;-59
2021/05/04 06:58:37;;;;;;;4.73;3.97;;;12.90;67.30;;;14.16;100.00;99294.09;4990114;28;20237;-60
2021/05/04 07:01:48;;;;;;;4.83;3.57;;;13.00;65.00;;;14.22;100.00;99279.81;5020078;28;24420;-58
2021/05/04 07:05:12;;;;;;;5.40;4.13;;;13.10;64.00;;;14.13;100.00;99265.75;5019830;28;26755;-60
2021/05/04 07:08:35;;;;;;;4.80;4.33;;;13.10;61.80;;;14.30;100.00;99256.22;4996927;28;20604;-59
2021/05/04 07:11:47;;;;;;;4.00;3.60;;;13.20;61.10;;;14.31;100.00;99257.06;5024349;28;20960;-59
2021/05/04 07:14:58;;;;;;;7.03;4.53;;;13.20;59.70;;;14.37;100.00;99230.13;5017601;28;23994;-60
2021/05/04 07:18:10;;;;;;;4.53;3.80;;;13.20;60.30;;;14.36;100.00;99224.97;4999812;28;30451;-60
2021/05/04 07:21:23;;;;;;;5.43;4.03;;;13.30;59.80;;;14.40;100.00;99209.28;5017889;28;27708;-60
2021/05/04 07:24:34;;;;;;;4.30;3.90;;;13.40;59.50;;;14.41;100.00;99198.28;5021722;28;23309;-59
2021/05/04 07:27:47;;;;;;;5.37;3.50;;;13.50;58.60;;;14.40;100.00;99190.44;5020894;28;20221;-59
2021/05/04 07:30:58;;;;;;;4.20;3.40;;;13.50;58.90;;;14.55;100.00;99191.84;5022321;28;20503;-59
2021/05/04 07:34:09;;;;;;;5.70;3.10;;;13.50;58.50;;;14.61;100.00;99184.78;5021392;28;25905;-58
2021/05/04 07:37:35;;;;;;;4.57;3.40;;;13.60;58.20;;;14.57;100.00;99170.94;5020764;28;20828;-59
2021/05/04 07:44:33;;;;;;;3.63;2.87;;;13.70;57.90;;;14.86;100.00;99169.59;5014914;28;25623;-59
2021/05/04 07:48:04;;;;;;;3.37;3.07;;;13.80;57.50;;;14.97;100.00;99149.25;5014109;28;23596;-59
2021/05/04 07:51:27;;;;;;;4.03;2.83;;;13.80;57.00;;;14.97;100.00;99168.94;5023462;28;20902;-60
2021/05/04 07:58:03;;;;;;;4.10;3.00;;;14.00;56.10;;;15.03;100.00;99140.31;5019604;28;22903;-58
2021/05/04 08:01:15;;;;;;;2.70;2.50;;;14.00;56.60;;;15.14;100.00;99139.66;5022390;28;20218;-60
2021/05/04 08:04:42;;;;;;;2.73;2.47;;;14.10;55.80;;;15.26;100.00;99120.91;5021960;28;20284;-60
2021/05/04 08:08:02;;;;;;;2.43;2.23;;;14.20;55.40;;;15.21;100.00;99131.50;5019224;28;26041;-58
2021/05/04 08:11:23;;;;;;;3.97;2.73;;;14.20;55.60;;;15.00;100.00;99120.03;5016003;28;25748;-58
2021/05/04 08:14:34;;;;;;;3.87;2.63;;;14.30;55.70;;;15.25;100.00;99116.56;5021622;28;20638;-60
2021/05/04 08:18:00;;;;;;;4.03;2.73;;;14.30;55.30;;;15.39;100.00;99115.44;5021177;28;20644;-60
2021/05/04 08:25:08;;;;;;;3.77;2.33;;;14.40;55.20;;;15.61;100.00;99107.84;5013124;28;20372;-60
2021/05/04 08:28:25;;;;;;;2.57;2.27;;;14.40;55.50;;;15.68;100.00;99120.25;5016125;28;21566;-60
2021/05/04 08:32:21;;;;;;;2.47;2.10;;;14.50;55.50;;;15.78;100.00;99103.56;5019915;28;22501;-58
2021/05/04 08:35:34;;;;;;;2.83;2.10;;;14.60;54.50;;;15.64;100.00;99093.94;4909606;28;20257;-59
2021/05/04 08:38:52;;;;;;;3.07;2.00;;;14.70;53.30;;;15.49;100.00;99102.31;4989312;28;25019;-60
2021/05/04 08:42:21;;;;;;;4.57;2.33;;;14.70;53.30;;;15.64;100.00;99089.38;5020318;28;20901;-60
2021/05/04 08:45:50;;;;;;;2.30;1.90;;;14.60;52.60;;;15.50;100.00;99093.19;5019408;28;21664;-60
2021/05/04 08:49:01;;;;;;;6.73;2.37;;;14.60;52.20;;;15.54;100.00;99088.19;5020053;28;21280;-60
2021/05/04 08:52:31;;;;;;;3.80;2.53;;;14.60;52.00;;;15.41;100.00;99106.09;5019288;28;20381;-58
2021/05/04 08:56:03;;;;;;;2.23;2.03;;;14.50;52.30;;;15.51;100.00;99118.28;5013370;28;23910;-59
2021/05/04 08:59:38;;;;;;;4.23;2.53;;;14.50;52.90;;;15.35;100.00;99087.28;5016897;28;21822;-60
2021/05/04 09:06:23;;;;;;;2.93;2.30;;;14.10;54.80;;;15.12;100.00;99108.56;4937147;28;25105;-60
2021/05/04 09:09:47;;;;;;;3.13;2.40;;;13.80;56.50;;;15.08;100.00;99100.09;5024034;28;21064;-59
2021/05/04 09:13:02;;;;;;;5.77;2.30;;;13.70;57.00;;;14.81;100.00;99102.09;5016277;28;41961;-59
2021/05/04 09:23:19;;;;;;;2.57;2.20;;;12.90;67.40;;;14.28;100.00;99106.78;5003888;28;35651;-60
2021/05/04 09:26:40;;;;;;;2.97;2.37;;;12.60;73.20;;;14.25;100.00;99104.53;5002351;28;41120;-60
2021/05/04 09:30:03;;;;;;;3.90;1.93;;;12.30;81.60;;;14.19;100.00;99084.69;5000488;28;40010;-58
2021/05/04 09:33:14;;;;;;;3.90;2.67;;;12.20;83.10;;;14.20;100.00;99085.50;5004996;28;46876;-58
2021/05/04 09:37:04;;;;;;;3.50;2.53;;;12.00;86.10;;;14.08;100.00;99079.13;4999504;28;42297;-60
2021/05/04 09:44:40;;;;;;;2.63;2.33;;;11.70;90.70;;;14.53;100.00;99063.91;4943719;28;56557;-60
2021/05/04 09:48:09;;;;;;;4.27;2.10;;;11.70;90.30;;;14.75;100.00;99059.84;4997811;28;51996;-58
2021/05/04 09:51:32;;;;;;;5.37;2.17;;;11.80;86.80;;;14.99;100.00;99053.72;4997535;28;44931;-60
2021/05/04 09:54:58;;;;;;;2.97;2.23;;;12.10;79.80;;;15.23;100.00;99045.91;5006140;28;35545;-60
2021/05/04 09:58:16;;;;;;;2.43;2.13;;;12.40;78.10;;;15.48;100.00;99044.03;5002726;28;40223;-59
2021/05/04 10:01:30;;;;;;;2.73;1.97;;;12.70;75.00;;;15.51;100.00;99027.44;5009334;28;46675;-60
2021/05/04 10:04:42;;;;;;;3.83;2.00;;;13.10;69.80;;;15.77;100.00;99035.31;5009498;28;43082;-59
2021/05/04 10:07:56;;;;;;;3.73;1.77;;;13.50;66.60;;;15.82;100.00;99023.06;4994577;28;50626;-58
2021/05/04 10:11:07;;;;;;;3.00;1.90;;;13.70;64.30;;;15.80;100.00;99010.63;4993376;28;49282;-59
2021/05/04 10:14:20;;;;;;;3.00;2.20;;;13.90;66.00;;;15.82;100.00;99017.66;4989717;28;42506;-61
2021/05/04 10:17:33;;;;;;;4.80;2.27;;;13.90;67.40;;;15.91;100.00;99019.84;4995506;28;44756;-61
2021/05/04 10:20:46;;;;;;;2.40;2.20;;;13.90;70.50;;;15.62;100.00;99020.53;4990747;28;53483;-59
2021/05/04 10:23:57;;;;;;;1.97;1.80;;;13.80;70.20;;;15.40;100.00;99004.72;5000641;28;49077;-60
2021/05/04 10:27:09;;;;;;;4.10;2.00;;;13.70;74.10;;;15.36;100.00;99033.16;4996391;28;47927;-59
2021/05/04 10:30:23;;;;;;;3.40;2.00;;;13.50;74.10;;;15.22;100.00;99034.28;4987972;28;61044;-60
2021/05/04 10:33:50;;;;;;;2.33;2.00;;;13.30;79.50;;;15.02;100.00;99047.91;4989404;28;59754;-60
2021/05/04 10:37:12;;;;;;;3.33;2.20;;;13.00;84.50;;;14.68;100.00;99049.13;4998232;28;49910;-60
2021/05/04 10:40:39;;;;;;;3.67;1.93;;;12.70;89.60;;;14.83;100.00;99045.34;4997891;28;46150;-59
2021/05/04 10:44:20;;;;;;;2.17;2.00;;;12.50;85.80;;;14.56;100.00;99050.84;4994684;28;45068;-60
2021/05/04 10:48:06;;;;;;;2.43;2.13;;;12.30;86.60;;;14.53;100.00;99055.81;4937013;28;47790;-60
2021/05/04 10:51:32;;;;;;;2.10;1.60;;;12.20;89.00;;;14.51;100.00;99061.41;4951979;28;47037;-60
2021/05/04 10:54:50;;;;;;;4.73;2.07;;;12.10;90.90;;;14.19;100.00;99044.31;5005373;28;46316;-60
2021/05/04 10:58:25;;;;;;;2.87;1.90;;;12.00;92.40;;;13.98;100.00;99006.91;4981936;28;48657;-57
2021/05/04 11:01:36;;;;;;;3.33;2.30;;;11.80;93.90;;;13.90;100.00;99034.88;4993714;28;48934;-59
2021/05/04 11:05:06;;;;;;;3.10;2.23;;;11.60;97.30;;;14.06;100.00;99009.41;5001071;28;45124;-59
2021/05/04 11:09:11;;;;;;;5.70;2.27;;;11.40;98.50;;;14.32;100.00;98998.53;4995653;28;46681;-58
2021/05/04 11:12:47;;;;;;;4.17;2.00;;;11.40;96.80;;;14.50;100.00;98991.66;4924739;28;45430;-58
2021/05/04 11:19:46;;;;;;;2.33;1.93;;;11.70;96.50;;;14.86;100.00;98977.56;4973329;28;45992;-58
2021/05/04 11:23:10;;;;;;;2.33;1.83;;;11.80;94.20;;;14.96;100.00;98978.72;5007358;28;41039;-58
2021/05/04 11:26:21;;;;;;;3.03;1.80;;;12.00;94.70;;;15.13;100.00;98962.88;5003044;28;36518;-60
2021/05/04 11:33:59;;;;;;;2.30;2.10;;;12.50;92.60;;;15.53;100.00;98970.59;4892282;28;34298;-59
2021/05/04 11:41:29;;;;;;;2.50;1.70;;;13.30;86.90;;;15.89;100.00;98951.81;5011461;28;20245;-58
2021/05/04 11:44:52;;;;;;;2.33;1.87;;;13.50;84.70;;;16.01;100.00;98928.41;4935403;28;24601;-60
2021/05/04 11:52:06;;;;;;;2.60;1.50;;;14.00;77.30;;;16.17;100.00;98922.41;4951636;28;20487;-59
2021/05/04 11:55:33;;;;;;;4.03;1.60;;;14.20;72.90;;;16.19;100.00;98929.47;4960600;28;21716;-58
2021/05/04 12:02:38;;;;;;;1.93;1.60;;;14.60;66.50;;;16.31;100.00;98939.25;5013385;28;20725;-58
2021/05/04 12:06:01;;;;;;;2.67;1.80;;;14.60;66.50;;;16.42;100.00;98935.78;5016762;28;23412;-59
2021/05/04 12:20:31;;;;;;;3.30;1.50;;;15.20;59.50;;;17.10;100.00;98915.66;5016754;28;20644;-60
2021/05/04 12:24:19;;;;;;;2.88;1.65;;;15.50;59.50;;;17.36;100.00;98904.38;5018213;28;20576;-60
2021/05/04 12:27:39;;;;;;;1.60;1.50;;;15.70;57.20;;;17.58;100.00;98921.66;4918919;28;20425;-60
2021/05/04 12:31:09;;;;;;;2.72;1.50;;;15.90;57.20;;;17.51;100.00;98906.63;5019097;28;20872;-60
2021/05/04 12:34:35;;;;;;;4.10;1.77;;;16.10;56.00;;;17.41;100.00;98915.34;5021025;28;20636;-58
2021/05/04 12:38:00;;;;;;;1.83;1.45;;;16.20;55.30;;;17.42;100.00;98910.75;5019577;28;20630;-59
2021/05/04 12:41:26;;;;;;;3.20;1.60;;;16.20;55.30;;;17.44;100.00;98905.91;5020334;28;21196;-59
2021/05/04 12:52:30;;;;;;;4.05;1.23;;;16.30;53.80;;;17.52;100.00;98892.03;4905500;28;20527;-59
2021/05/04 12:55:43;;;;;;;7.15;1.65;;;16.40;53.20;;;17.40;100.00;98907.47;4998898;28;20230;-60
2021/05/04 12:59:10;;;;;;;1.77;1.33;;;16.40;53.00;;;17.46;100.00;98898.38;5018189;28;20397;-61
2021/05/04 13:02:29;;;;;;;1.55;1.15;;;16.40;52.50;;;17.56;100.00;98883.22;5001735;28;20755;-60
2021/05/04 13:05:47;;;;;;;4.32;1.90;;;16.40;52.80;;;17.45;100.00;98881.34;5020088;28;20800;-60
2021/05/04 13:09:22;;;;;;;2.53;1.50;;;16.30;52.40;;;17.51;100.00;98882.28;5016857;28;21755;-60
2021/05/04 13:31:31;;;;;;;3.00;2.30;;;16.00;53.30;;;17.18;100.00;98883.69;4999191;28;22484;-60
2021/05/04 13:38:15;;;;;;;3.67;1.48;;;15.80;53.40;;;17.34;100.00;98884.06;5003521;28;20219;-60
2021/05/04 13:52:30;;;;;;;1.48;1.38;;;16.10;53.00;;;17.48;100.00;98866.53;5000191;28;22573;-61
2021/05/04 13:55:42;;;;;;;2.30;1.02;;;16.10;52.80;;;17.37;100.00;98881.72;5002889;28;20597;-61
2021/05/04 13:59:05;;;;;;;1.77;0.88;;;16.20;52.60;;;17.46;100.00;98857.81;5000736;28;24437;-60
2021/05/04 14:27:12;;;;;;;4.17;1.30;;;13.20;91.00;;;15.24;100.00;98877.78;5004523;28;46748;-59
2021/05/04 14:30:24;;;;;;;2.10;1.10;;;13.00;94.00;;;15.44;100.00;98871.16;5009822;28;44843;-59
2021/05/04 14:37:43;;;;;;;1.27;0.97;;;13.10;91.40;;;16.21;100.00;98851.75;5012997;28;39642;-61
2021/05/04 15:01:44;;;;;;;1.13;0.60;;;15.00;64.90;;;16.41;100.00;98858.53;5022148;28;20560;-60
2021/05/04 15:05:00;;;;;;;1.42;0.90;;;15.00;65.20;;;16.35;100.00;98848.66;5024180;28;20689;-60
2021/05/04 15:08:13;;;;;;;2.67;1.10;;;15.00;64.90;;;16.40;100.00;98873.09;5024863;28;20218;-59
2021/05/04 15:11:24;;;;;;;1.33;0.70;;;15.00;65.60;;;16.29;100.00;98852.28;5025179;28;20237;-60
2021/05/04 15:15:05;;;;;;;2.55;1.20;;;15.10;64.80;;;16.37;100.00;98848.44;5025069;28;20221;-59
2021/05/04 15:25:16;;;;;;;2.00;0.90;;;15.10;63.30;;;16.29;100.00;98844.19;5020570;28;20730;-60
2021/05/04 15:28:39;;;;;;;0.70;0.70;;;15.10;62.60;;;16.25;100.00;98842.16;5017468;28;20222;-61
2021/05/04 15:32:25;;;;;;;1.75;0.70;;;15.20;62.20;;;16.33;100.00;98831.03;5005320;28;20961;-60
2021/05/04 15:36:23;;;;;;;3.22;1.05;;;15.20;61.90;;;16.41;100.00;98825.31;5023586;28;20493;-60
2021/05/04 15:43:12;;;;;;;2.97;1.20;;;15.10;62.70;;;16.31;100.00;98823.19;5017774;28;20522;-61
2021/05/04 15:46:29;;;;;;;3.27;1.10;;;15.10;62.60;;;16.30;100.00;98839.63;5024717;28;20559;-60
2021/05/04 15:49:44;;;;;;;1.45;1.20;;;15.10;62.80;;;16.25;100.00;98825.97;5018052;28;20672;-60
2021/05/04 15:53:03;;;;;;;1.42;0.50;;;15.10;62.20;;;16.30;100.00;98832.34;5023955;28;20628;-60
2021/05/04 16:09:53;;;;;;;3.70;0.60;;;15.10;63.10;;;16.35;100.00;98839.72;5020479;28;20621;-60
2021/05/04 16:13:04;;;;;;;2.40;0.82;;;15.10;62.20;;;16.25;100.00;98828.69;5026516;28;20432;-61
2021/05/04 16:16:16;;;;;;;2.38;0.70;;;15.10;60.50;;;16.20;100.00;98823.94;5027114;28;20219;-61
2021/05/04 16:19:30;;;;;;;1.75;0.60;;;15.10;59.90;;;16.20;100.00;98825.81;5005093;28;20623;-61
2021/05/04 16:22:46;;;;;;;2.78;0.98;;;15.00;60.40;;;16.20;100.00;98815.03;5005902;28;20558;-61
2021/05/04 16:29:22;;;;;;;0.73;0.60;;;15.00;60.50;;;16.17;100.00;98827.13;5005679;28;20314;-61
2021/05/04 16:32:33;;;;;;;1.67;0.73;;;15.00;61.00;;;16.22;100.00;98821.03;5005994;28;20312;-61
2021/05/04 16:35:44;;;;;;;2.25;0.70;;;14.90;61.60;;;16.13;100.00;98810.56;5000432;28;20400;-61
2021/05/04 16:38:59;;;;;;;0.70;0.70;;;14.80;60.90;;;16.09;100.00;98801.28;5002956;28;20283;-61
2021/05/04 16:42:13;;;;;;;2.45;0.70;;;14.80;60.70;;;16.10;100.00;98813.72;5003686;28;21148;-59
2021/05/04 16:45:24;;;;;;;1.27;0.77;;;14.80;60.10;;;16.04;100.00;98798.47;5002365;28;21218;-61
2021/05/04 16:48:39;;;;;;;2.47;0.53;;;14.80;60.70;;;16.02;100.00;98787.06;4999991;28;36564;-61
2021/05/04 16:51:50;;;;;;;2.03;0.70;;;14.70;59.90;;;16.03;100.00;98810.31;5001611;28;32749;-59
2021/05/04 16:55:02;;;;;;;4.53;0.80;;;14.70;59.50;;;16.06;100.00;98814.44;5000615;28;20498;-61
2021/05/04 16:58:14;;;;;;;2.55;0.80;;;14.70;59.90;;;16.08;100.00;98790.72;5004168;28;20226;-60
2021/05/04 17:01:38;;;;;;;3.30;0.77;;;14.60;60.00;;;16.05;100.00;98792.03;5004079;28;20586;-61
2021/05/04 17:04:49;;;;;;;1.77;1.10;;;14.70;59.50;;;16.00;100.00;98793.75;5005283;28;20320;-61
2021/05/04 17:08:04;;;;;;;0.95;0.60;;;14.70;59.50;;;15.93;100.00;98772.28;5003153;28;20576;-61
2021/05/04 17:11:28;;;;;;;1.07;0.50;;;14.60;59.00;;;15.87;100.00;98785.84;5004008;28;20317;-61
2021/05/04 17:22:20;;;;;;;2.07;0.57;;;14.50;58.60;;;15.76;100.00;98776.66;5024303;28;20385;-61
2021/05/04 17:25:34;;;;;;;0.70;0.70;;;14.40;59.00;;;15.70;100.00;98772.19;5024525;28;20599;-61
2021/05/04 17:29:05;;;;;;;3.00;1.20;;;14.40;58.80;;;15.70;100.00;98789.16;5017847;28;22250;-60
2021/05/04 17:32:17;;;;;;;2.80;1.00;;;14.40;59.20;;;15.69;100.00;98776.75;5016605;28;20753;-60
2021/05/04 17:35:29;;;;;;;1.53;1.40;;;14.40;59.00;;;15.67;100.00;98772.63;5025322;28;20425;-60
2021/05/04 17:38:40;;;;;;;1.00;0.80;;;14.30;59.40;;;15.64;100.00;98784.69;5024637;28;20501;-61
2021/05/04 17:41:53;;;;;;;2.40;0.80;;;14.30;59.60;;;15.47;100.00;98778.22;5004990;28;20378;-61
2021/05/04 17:45:04;;;;;;;3.40;0.70;;;14.20;60.10;;;15.57;100.00;98775.06;5026843;28;20712;-61
2021/05/04 17:52:06;;;;;;;1.00;0.63;;;14.10;60.90;;;15.44;100.00;98774.13;4939512;28;24582;-59
2021/05/04 17:55:18;;;;;;;1.63;0.70;;;14.10;61.80;;;15.33;100.00;98757.91;4997741;28;23242;-60
2021/05/04 17:58:30;;;;;;;2.93;0.77;;;14.00;62.20;;;15.32;100.00;98772.41;5021199;28;21685;-61
2021/05/04 18:01:41;;;;;;;1.70;0.80;;;13.90;62.90;;;15.39;100.00;98767.75;5019295;28;28004;-61
2021/05/04 18:05:03;;;;;;;2.23;0.60;;;13.90;63.60;;;15.38;100.00;98763.41;5010966;28;37172;-60
2021/05/04 18:08:32;;;;;;;3.53;0.70;;;13.90;63.70;;;15.37;100.00;98764.47;5012351;28;28430;-60
2021/05/04 18:21:45;;;;;;;1.63;0.57;;;13.80;65.10;;;15.35;100.00;98775.47;5018913;28;30746;-61
2021/05/04 18:28:19;;;;;;;0.83;0.80;;;13.80;65.60;;;15.30;100.00;98778.03;5009390;28;33860;-61
2021/05/04 18:31:45;;;;;;;5.30;0.90;;;13.80;65.80;;;15.29;100.00;98773.69;5003883;28;25403;-61
2021/05/04 18:34:59;;;;;;;2.60;1.10;;;13.80;66.10;;;15.23;100.00;98771.88;5006859;28;40448;-61
2021/05/04 18:38:29;;;;;;;2.57;0.70;;;13.80;65.80;;;15.26;100.00;98793.00;4955571;28;28413;-61
2021/05/04 20:09:55;;;;;;;2.30;1.07;;;10.90;99.90;;;11.91;100.00;98889.88;4971996;28;44313;-62
2021/05/04 20:13:06;;;;;;;2.57;1.20;;;10.80;99.90;;;11.96;100.00;98900.00;4982008;28;47527;-61
2021/05/04 20:16:31;;;;;;;1.70;0.90;;;10.80;99.90;;;11.87;100.00;98904.69;4974915;28;50569;-61